< < Back
Terminal Aerodrome Forecast


Current Version              Previous Versions:   1  2  3  4  5  6  7  8  9  

Terminal Aerodrome Forecast

637
FTUS42 KGSP 232200 AAB
TAFCLT
TAF AMD
KCLT 232214Z 2322/2418 23007KT P6SM VCSH SCT040
      TEMPO 2322/2324 30010G20KT TSRA BKN035CB
     FM240000 23005KT P6SM SCT060
     FM241500 23004KT P6SM BKN080 PROB30 2416/2418 4SM TSRA
      BKN040CB=

Latest METAR

092
SAUS70 KWBC 232200 RRB
MTRCLT
METAR KCLT 232152Z 25007KT 10SM FEW043 SCT200 32/21 A2997 RMK AO2 SLP139
T03170206


USA.gov is the U.S. government's official web portal to all federal, state and local government web resources and services.